createdAt,value
2017-08-05T00:00:27.112Z,1004.99
2017-08-05T00:01:07.531Z,1004.99
2017-08-05T00:01:47.849Z,1004.96
2017-08-05T00:02:28.338Z,1004.96
2017-08-05T00:03:08.629Z,1004.97
2017-08-05T00:03:49.036Z,1004.96
2017-08-05T00:04:29.507Z,1004.98
2017-08-05T00:05:09.865Z,1004.96
2017-08-05T00:05:50.299Z,1004.98
2017-08-05T00:06:30.691Z,1004.96
2017-08-05T00:07:11.049Z,1004.93
2017-08-05T00:07:51.477Z,1004.93
2017-08-05T00:08:31.904Z,1004.91
2017-08-05T00:09:12.313Z,1004.91
2017-08-05T00:09:52.737Z,1004.93
2017-08-05T00:10:33.081Z,1004.91
2017-08-05T00:11:13.521Z,1004.94
2017-08-05T00:11:53.931Z,1004.98
2017-08-05T00:12:34.332Z,1004.94
2017-08-05T00:13:14.738Z,1004.97
2017-08-05T00:13:55.123Z,1005
2017-08-05T00:14:35.539Z,1005.02
2017-08-05T00:15:15.920Z,1005.03
2017-08-05T00:15:56.316Z,1005.07
2017-08-05T00:16:36.729Z,1005.08
2017-08-05T00:17:17.111Z,1005.11
2017-08-05T00:17:57.565Z,1005.11
2017-08-05T00:18:37.898Z,1005.11
2017-08-05T00:19:18.312Z,1005.12
2017-08-05T00:19:58.686Z,1005.14
2017-08-05T00:20:39.204Z,1005.11
2017-08-05T00:21:19.589Z,1005.13
2017-08-05T00:22:00.038Z,1005.15
2017-08-05T00:22:40.396Z,1005.1
2017-08-05T00:23:20.803Z,1005.06
2017-08-05T00:24:01.353Z,1005.05
2017-08-05T00:24:41.780Z,1005.07
2017-08-05T00:25:22.141Z,1005.06
2017-08-05T00:26:02.570Z,1005.07
2017-08-05T00:26:42.926Z,1005.03
2017-08-05T00:27:23.337Z,1005.03
2017-08-05T00:28:03.720Z,1005.03
2017-08-05T00:28:44.217Z,1005.01
2017-08-05T00:29:24.635Z,1005
2017-08-05T00:30:05.011Z,1004.99
2017-08-05T00:30:45.373Z,1004.99
2017-08-05T00:31:25.775Z,1004.97
2017-08-05T00:32:06.236Z,1004.97
2017-08-05T00:32:46.594Z,1004.94
2017-08-05T00:33:26.943Z,1004.95
2017-08-05T00:34:07.336Z,1004.96
2017-08-05T00:34:47.826Z,1004.95
2017-08-05T00:35:28.173Z,1004.96
2017-08-05T00:36:08.589Z,1004.97
2017-08-05T00:36:48.971Z,1004.99
2017-08-05T00:37:29.337Z,1004.99
2017-08-05T00:38:09.767Z,1004.97
2017-08-05T00:38:50.181Z,1005
2017-08-05T00:39:30.562Z,1005.01
2017-08-05T00:40:11.003Z,1005.01
2017-08-05T00:40:51.353Z,1005.02
2017-08-05T00:41:31.803Z,1005.02
2017-08-05T00:42:12.275Z,1005.03
2017-08-05T00:42:52.696Z,1004.97
2017-08-05T00:43:33.073Z,1004.99
2017-08-05T00:44:13.523Z,1004.97
2017-08-05T00:44:53.897Z,1004.97
2017-08-05T00:45:34.330Z,1005.02
2017-08-05T00:46:14.774Z,1004.99
2017-08-05T00:46:55.174Z,1005.03
2017-08-05T00:47:35.535Z,1005.08
2017-08-05T00:48:15.945Z,1005.1
2017-08-05T00:48:56.370Z,1005.07
2017-08-05T00:49:36.726Z,1005.07
2017-08-05T00:50:17.071Z,1005.09
2017-08-05T00:50:57.539Z,1005.11
2017-08-05T00:51:37.910Z,1005.08
2017-08-05T00:52:18.334Z,1005.09
2017-08-05T00:52:58.705Z,1005.09
2017-08-05T00:53:39.057Z,1005.11
2017-08-05T00:54:19.500Z,1005.06
2017-08-05T00:54:59.883Z,1005.12
2017-08-05T00:55:40.294Z,1005.13
2017-08-05T00:56:20.671Z,1005.1
2017-08-05T00:57:01.077Z,1005.13
2017-08-05T00:57:41.446Z,1005.14
2017-08-05T00:58:21.810Z,1005.11
2017-08-05T00:59:02.246Z,1005.14
2017-08-05T00:59:42.634Z,1005.09
2017-08-05T01:00:23.083Z,1005.11
2017-08-05T01:01:03.486Z,1005.08
2017-08-05T01:01:43.830Z,1005.11
2017-08-05T01:02:24.302Z,1005.12
2017-08-05T01:03:04.635Z,1005.08
2017-08-05T01:03:45.079Z,1005.06
2017-08-05T01:04:25.486Z,1005.08
2017-08-05T01:05:05.863Z,1005.06
2017-08-05T01:05:46.245Z,1005.09
2017-08-05T01:06:26.700Z,1005.1
2017-08-05T01:07:07.075Z,1005.1
2017-08-05T01:07:47.448Z,1005.09
2017-08-05T01:08:27.863Z,1005.07
2017-08-05T01:09:08.215Z,1005.07
2017-08-05T01:09:48.663Z,1005.08
2017-08-05T01:10:29.069Z,1005.06
2017-08-05T01:11:09.477Z,1005.05
2017-08-05T01:11:49.931Z,1005.04
2017-08-05T01:12:30.421Z,1005.08
2017-08-05T01:13:10.802Z,1005.06
2017-08-05T01:13:51.187Z,1005.1
2017-08-05T01:14:31.595Z,1005.08
2017-08-05T01:15:12.035Z,1005.1
2017-08-05T01:15:52.577Z,1005.05
2017-08-05T01:16:33.005Z,1005.05
2017-08-05T01:17:13.437Z,1004.97
2017-08-05T01:17:53.794Z,1004.93
2017-08-05T01:18:34.215Z,1004.87
2017-08-05T01:19:14.565Z,1004.88
2017-08-05T01:19:55.020Z,1004.85
2017-08-05T01:20:35.395Z,1004.83
2017-08-05T01:21:15.798Z,1004.85
2017-08-05T01:21:56.168Z,1004.86
2017-08-05T01:22:36.590Z,1004.84
2017-08-05T01:23:16.985Z,1004.87
2017-08-05T01:23:57.386Z,1004.92
2017-08-05T01:24:37.751Z,1004.92
2017-08-05T01:25:18.231Z,1004.94
2017-08-05T01:25:58.704Z,1004.95
2017-08-05T01:26:39.110Z,1005
2017-08-05T01:27:19.549Z,1005.01
2017-08-05T01:27:59.940Z,1004.98
2017-08-05T01:28:40.352Z,1004.99
2017-08-05T01:29:20.776Z,1005.02
2017-08-05T01:30:01.200Z,1004.99
2017-08-05T01:30:41.602Z,1005
2017-08-05T01:31:21.985Z,1005.01
2017-08-05T01:32:02.397Z,1004.98
2017-08-05T01:32:42.823Z,1005.04
2017-08-05T01:33:23.276Z,1005.01
2017-08-05T01:34:03.647Z,1005.05
2017-08-05T01:34:44.088Z,1005.04
2017-08-05T01:35:24.551Z,1005.05
2017-08-05T01:36:04.935Z,1005.06
2017-08-05T01:36:45.316Z,1005.05
2017-08-05T01:37:25.726Z,1005.07
2017-08-05T01:38:06.167Z,1005.09
2017-08-05T01:38:46.531Z,1005.08
2017-08-05T01:39:26.908Z,1005.07
2017-08-05T01:40:07.352Z,1005.04
2017-08-05T01:40:47.725Z,1005.07
2017-08-05T01:41:28.151Z,1005.1
2017-08-05T01:42:08.516Z,1005.08
2017-08-05T01:42:48.972Z,1005.08
2017-08-05T01:43:29.330Z,1005.08
2017-08-05T01:44:09.807Z,1005.08
2017-08-05T01:44:50.111Z,1005.08
2017-08-05T01:45:30.588Z,1005.07
2017-08-05T01:46:10.944Z,1005.04
2017-08-05T01:46:51.300Z,1005.07
2017-08-05T01:47:31.749Z,1005.07
2017-08-05T01:48:12.203Z,1005.04
2017-08-05T01:48:52.653Z,1005.02
2017-08-05T01:49:33.148Z,1005.02
2017-08-05T01:50:13.649Z,1004.98
2017-08-05T01:50:53.960Z,1005
2017-08-05T01:51:34.425Z,1005.03
2017-08-05T01:52:14.806Z,1005.05
2017-08-05T01:52:55.212Z,1005.05
2017-08-05T01:53:35.610Z,1005.07
2017-08-05T01:54:16.034Z,1005.06
2017-08-05T01:54:56.408Z,1005.04
2017-08-05T01:55:36.780Z,1005.03
2017-08-05T01:56:17.249Z,1005.01
2017-08-05T01:56:57.569Z,1005.04
2017-08-05T01:57:37.988Z,1005.04
2017-08-05T01:58:18.347Z,1005.05
2017-08-05T01:58:58.801Z,1005.03
2017-08-05T01:59:39.267Z,1004.99
2017-08-05T02:00:19.637Z,1004.98
2017-08-05T02:01:00.060Z,1004.97
2017-08-05T02:01:40.452Z,1004.96
2017-08-05T02:02:20.807Z,1004.92
2017-08-05T02:03:01.257Z,1004.9
2017-08-05T02:03:41.674Z,1004.91
2017-08-05T02:04:22.078Z,1004.97
2017-08-05T02:05:02.476Z,1005
2017-08-05T02:05:42.820Z,1004.98
2017-08-05T02:06:23.261Z,1004.97
2017-08-05T02:07:03.684Z,1004.95
2017-08-05T02:07:44.103Z,1004.93
2017-08-05T02:08:24.468Z,1004.91
2017-08-05T02:09:04.897Z,1004.9
2017-08-05T02:09:45.299Z,1004.9
2017-08-05T02:10:25.686Z,1004.9
2017-08-05T02:11:06.043Z,1004.87
2017-08-05T02:11:46.403Z,1004.88
2017-08-05T02:12:26.831Z,1004.88
2017-08-05T02:13:07.205Z,1004.86
2017-08-05T02:13:47.701Z,1004.86
2017-08-05T02:14:28.145Z,1004.89
2017-08-05T02:15:08.486Z,1004.96
2017-08-05T02:15:48.899Z,1004.95
2017-08-05T02:16:29.297Z,1004.93
2017-08-05T02:17:09.765Z,1005
2017-08-05T02:17:50.127Z,1004.97
2017-08-05T02:18:30.512Z,1004.92
2017-08-05T02:19:10.965Z,1004.89
2017-08-05T02:19:51.329Z,1004.92
2017-08-05T02:20:31.704Z,1004.89
2017-08-05T02:21:12.128Z,1004.88
2017-08-05T02:21:52.576Z,1004.89
2017-08-05T02:22:32.998Z,1004.87
2017-08-05T02:23:13.367Z,1004.92
2017-08-05T02:23:53.798Z,1004.93
2017-08-05T02:24:34.151Z,1004.95
2017-08-05T02:25:14.578Z,1004.9
2017-08-05T02:25:55.039Z,1004.94
2017-08-05T02:26:35.388Z,1004.93
2017-08-05T02:27:15.804Z,1004.96
2017-08-05T02:27:56.148Z,1004.89
2017-08-05T02:28:36.646Z,1004.93
2017-08-05T02:29:17.074Z,1004.88
2017-08-05T02:29:57.542Z,1004.88
2017-08-05T02:30:37.929Z,1004.93
2017-08-05T02:31:18.373Z,1004.91
2017-08-05T02:31:58.798Z,1004.9
2017-08-05T02:32:39.231Z,1004.94
2017-08-05T02:33:19.624Z,1004.9
2017-08-05T02:34:00.029Z,1004.95
2017-08-05T02:34:40.458Z,1004.89
2017-08-05T02:35:20.890Z,1004.86
2017-08-05T02:36:01.276Z,1004.81
2017-08-05T02:36:41.689Z,1004.8
2017-08-05T02:37:22.064Z,1004.79
2017-08-05T02:38:02.427Z,1004.75
2017-08-05T02:38:42.879Z,1004.77
2017-08-05T02:39:23.227Z,1004.76
2017-08-05T02:40:03.692Z,1004.77
2017-08-05T02:40:44.075Z,1004.79
2017-08-05T02:41:24.480Z,1004.77
2017-08-05T02:42:04.950Z,1004.79
2017-08-05T02:42:45.362Z,1004.77
2017-08-05T02:43:25.682Z,1004.82
2017-08-05T02:44:06.151Z,1004.79
2017-08-05T02:44:46.514Z,1004.73
2017-08-05T02:45:26.872Z,1004.76
2017-08-05T02:46:07.308Z,1004.73
2017-08-05T02:46:47.758Z,1004.75
2017-08-05T02:47:28.113Z,1004.72
2017-08-05T02:48:08.512Z,1004.69
2017-08-05T02:48:48.958Z,1004.67
2017-08-05T02:49:29.334Z,1004.67
2017-08-05T02:50:09.795Z,1004.68
2017-08-05T02:50:50.223Z,1004.68
2017-08-05T02:51:30.566Z,1004.68
2017-08-05T02:52:11.011Z,1004.69
2017-08-05T02:52:51.394Z,1004.71
2017-08-05T02:53:31.746Z,1004.68
2017-08-05T02:54:12.133Z,1004.66
2017-08-05T02:54:52.599Z,1004.69
2017-08-05T02:55:33.014Z,1004.63
2017-08-05T02:56:13.433Z,1004.62
2017-08-05T02:56:53.834Z,1004.65
2017-08-05T02:57:34.223Z,1004.64
2017-08-05T02:58:14.651Z,1004.62
2017-08-05T02:58:55.011Z,1004.66
2017-08-05T02:59:35.432Z,1004.64
2017-08-05T03:00:15.885Z,1004.66
2017-08-05T03:00:56.342Z,1004.63
2017-08-05T03:01:36.934Z,1004.65
2017-08-05T03:02:17.229Z,1004.59
2017-08-05T03:02:57.648Z,1004.57
2017-08-05T03:03:38.055Z,1004.58
2017-08-05T03:04:18.485Z,1004.55
2017-08-05T03:04:58.988Z,1004.56
2017-08-05T03:05:39.400Z,1004.53
2017-08-05T03:06:19.809Z,1004.56
2017-08-05T03:07:00.334Z,1004.54
2017-08-05T03:07:40.716Z,1004.55
2017-08-05T03:08:21.149Z,1004.61
2017-08-05T03:09:01.526Z,1004.58
2017-08-05T03:09:41.981Z,1004.6
2017-08-05T03:10:22.384Z,1004.62
2017-08-05T03:11:02.768Z,1004.66
2017-08-05T03:11:43.155Z,1004.63
2017-08-05T03:12:23.622Z,1004.65
2017-08-05T03:13:04.059Z,1004.65
2017-08-05T03:13:44.447Z,1004.66
2017-08-05T03:14:24.817Z,1004.66
2017-08-05T03:15:05.211Z,1004.67
2017-08-05T03:15:45.683Z,1004.64
2017-08-05T03:16:26.107Z,1004.64
2017-08-05T03:17:06.538Z,1004.64
2017-08-05T03:17:47.106Z,1004.6
2017-08-05T03:18:27.553Z,1004.64
2017-08-05T03:19:07.952Z,1004.61
2017-08-05T03:19:48.374Z,1004.63
2017-08-05T03:20:28.803Z,1004.58
2017-08-05T03:21:09.175Z,1004.61
2017-08-05T03:21:49.602Z,1004.63
2017-08-05T03:22:30.030Z,1004.66
2017-08-05T03:23:10.410Z,1004.63
2017-08-05T03:23:50.837Z,1004.63
2017-08-05T03:24:31.285Z,1004.65
2017-08-05T03:25:11.672Z,1004.62
2017-08-05T03:25:51.986Z,1004.61
2017-08-05T03:26:32.486Z,1004.61
2017-08-05T03:27:12.891Z,1004.59
2017-08-05T03:27:53.271Z,1004.52
2017-08-05T03:28:33.706Z,1004.53
2017-08-05T03:30:56.180Z,1004.39
2017-08-05T03:32:57.487Z,1004.41
2017-08-05T03:33:37.947Z,1004.37
2017-08-05T03:34:18.356Z,1004.38
2017-08-05T03:34:58.737Z,1004.37
2017-08-05T03:35:39.232Z,1004.36
2017-08-05T03:36:19.604Z,1004.38
2017-08-05T03:37:00.032Z,1004.38
2017-08-05T03:37:40.489Z,1004.37
2017-08-05T03:38:20.805Z,1004.43
2017-08-05T03:39:01.317Z,1004.39
2017-08-05T03:39:41.825Z,1004.38
2017-08-05T03:40:22.221Z,1004.39
2017-08-05T03:41:02.660Z,1004.34
2017-08-05T03:41:42.996Z,1004.35
2017-08-05T03:42:23.529Z,1004.32
2017-08-05T03:43:03.920Z,1004.32
2017-08-05T03:43:44.370Z,1004.3
2017-08-05T03:44:24.794Z,1004.31
2017-08-05T03:45:05.148Z,1004.29
2017-08-05T03:45:45.506Z,1004.29
2017-08-05T03:46:25.987Z,1004.3
2017-08-05T03:47:06.312Z,1004.38
2017-08-05T03:47:46.699Z,1004.36
2017-08-05T03:48:27.145Z,1004.39
2017-08-05T03:49:07.590Z,1004.41
2017-08-05T03:49:47.956Z,1004.41
2017-08-05T03:50:28.412Z,1004.47
2017-08-05T03:51:08.772Z,1004.5
2017-08-05T03:51:49.197Z,1004.49
2017-08-05T03:52:29.557Z,1004.49
2017-08-05T03:53:09.989Z,1004.54
2017-08-05T03:53:50.442Z,1004.52
2017-08-05T03:54:30.889Z,1004.53
2017-08-05T03:55:11.245Z,1004.52
2017-08-05T03:55:51.719Z,1004.57
2017-08-05T03:56:32.151Z,1004.62
2017-08-05T03:57:12.548Z,1004.62
2017-08-05T03:57:52.912Z,1004.61
2017-08-05T03:58:33.388Z,1004.57
2017-08-05T03:59:13.830Z,1004.58
2017-08-05T03:59:54.354Z,1004.66
2017-08-05T04:00:34.742Z,1004.64
2017-08-05T04:01:15.096Z,1004.6
2017-08-05T04:01:55.495Z,1004.66
2017-08-05T04:02:35.893Z,1004.64
2017-08-05T04:03:16.321Z,1004.69
2017-08-05T04:03:56.720Z,1004.63
2017-08-05T04:04:37.194Z,1004.62
2017-08-05T04:05:17.607Z,1004.62
2017-08-05T04:05:57.992Z,1004.61
2017-08-05T04:06:38.472Z,1004.62
2017-08-05T04:07:18.799Z,1004.63
2017-08-05T04:07:59.312Z,1004.66
2017-08-05T04:08:39.680Z,1004.64
2017-08-05T04:09:20.114Z,1004.64
2017-08-05T04:10:00.591Z,1004.62
2017-08-05T04:10:41.014Z,1004.59
2017-08-05T04:11:21.496Z,1004.55
2017-08-05T04:12:01.949Z,1004.45
2017-08-05T04:12:42.299Z,1004.42
2017-08-05T04:13:22.732Z,1004.39
2017-08-05T04:14:03.252Z,1004.38
2017-08-05T04:14:43.657Z,1004.34
2017-08-05T04:15:23.999Z,1004.36
2017-08-05T04:16:04.408Z,1004.31
2017-08-05T04:16:44.845Z,1004.31
2017-08-05T04:17:25.257Z,1004.3
2017-08-05T04:18:05.655Z,1004.25
2017-08-05T04:18:46.030Z,1004.19
2017-08-05T04:19:26.450Z,1004.23
2017-08-05T04:20:06.827Z,1004.18
2017-08-05T04:20:47.249Z,1004.17
2017-08-05T04:21:27.616Z,1004.14
2017-08-05T04:22:08.028Z,1004.16
2017-08-05T04:22:48.574Z,1004.16
2017-08-05T04:23:28.950Z,1004.15
2017-08-05T04:24:09.382Z,1004.12
2017-08-05T04:24:49.798Z,1004.12
2017-08-05T04:25:30.204Z,1004.02
2017-08-05T04:26:10.612Z,1004.03
2017-08-05T04:26:51.006Z,1004.04
2017-08-05T04:27:31.384Z,1003.99
2017-08-05T04:28:11.792Z,1003.95
2017-08-05T04:28:52.177Z,1003.98
2017-08-05T04:29:32.664Z,1003.95
2017-08-05T04:30:13.029Z,1003.96
2017-08-05T04:30:53.363Z,1003.97
2017-08-05T04:31:33.839Z,1004.03
2017-08-05T04:32:14.244Z,1004.02
2017-08-05T04:32:54.640Z,1004.05
2017-08-05T04:33:35.109Z,1004.05
2017-08-05T04:34:15.567Z,1004.03
2017-08-05T04:34:55.884Z,1004.02
2017-08-05T04:35:36.333Z,1004.02
2017-08-05T04:36:16.758Z,1004.01
2017-08-05T04:36:57.196Z,1004.01
2017-08-05T04:37:37.642Z,1003.96
2017-08-05T04:38:18.037Z,1003.97
2017-08-05T04:38:58.443Z,1003.94
2017-08-05T04:39:38.868Z,1003.97
2017-08-05T04:40:19.311Z,1003.96
2017-08-05T04:40:59.664Z,1003.99
2017-08-05T04:41:40.122Z,1003.94
2017-08-05T04:42:20.509Z,1003.98
2017-08-05T04:43:00.920Z,1003.96
2017-08-05T04:43:41.349Z,1003.96
2017-08-05T04:44:21.713Z,1003.94
2017-08-05T04:45:02.159Z,1003.95
2017-08-05T04:45:42.510Z,1003.96
2017-08-05T04:46:23.024Z,1003.94
2017-08-05T04:47:03.423Z,1003.91
2017-08-05T04:47:43.868Z,1003.93
2017-08-05T04:48:24.199Z,1003.96
2017-08-05T04:49:04.617Z,1003.95
2017-08-05T04:49:44.998Z,1003.91
2017-08-05T04:50:25.431Z,1003.93
2017-08-05T04:51:05.863Z,1003.94
2017-08-05T04:51:46.299Z,1003.94
2017-08-05T04:52:26.696Z,1003.97
2017-08-05T04:53:07.096Z,1003.98
2017-08-05T04:53:47.480Z,1004.02
2017-08-05T04:54:27.845Z,1004.01
2017-08-05T04:55:08.354Z,1004.04
2017-08-05T04:55:48.721Z,1004.01
2017-08-05T04:56:29.161Z,1003.99
2017-08-05T04:57:09.610Z,1003.94
2017-08-05T04:57:50.047Z,1003.92
2017-08-05T04:58:30.446Z,1003.88
2017-08-05T04:59:10.867Z,1003.89
2017-08-05T04:59:51.226Z,1003.91
2017-08-05T05:00:31.681Z,1003.91
2017-08-05T05:01:12.083Z,1003.83
2017-08-05T05:01:52.455Z,1003.82
2017-08-05T05:02:32.958Z,1003.78
2017-08-05T05:03:13.321Z,1003.79
2017-08-05T05:03:53.713Z,1003.76
2017-08-05T05:04:34.131Z,1003.78
2017-08-05T05:05:14.509Z,1003.77
2017-08-05T05:05:54.863Z,1003.74
2017-08-05T05:06:35.249Z,1003.76
2017-08-05T05:07:15.656Z,1003.76
2017-08-05T05:07:56.045Z,1003.76
2017-08-05T05:08:36.420Z,1003.78
2017-08-05T05:09:16.803Z,1003.77
2017-08-05T05:09:57.356Z,1003.76
2017-08-05T05:10:37.722Z,1003.74
2017-08-05T05:11:18.043Z,1003.77
2017-08-05T05:11:58.532Z,1003.77
2017-08-05T05:12:38.924Z,1003.76
2017-08-05T05:13:19.309Z,1003.78
2017-08-05T05:13:59.815Z,1003.81
2017-08-05T05:14:40.176Z,1003.82
2017-08-05T05:15:20.575Z,1003.86
2017-08-05T05:16:00.936Z,1003.84
2017-08-05T05:16:41.344Z,1003.85
2017-08-05T05:17:21.712Z,1003.86
2017-08-05T05:18:02.168Z,1003.87
2017-08-05T05:18:42.560Z,1003.82
2017-08-05T05:19:23.043Z,1003.82
2017-08-05T05:20:03.453Z,1003.76
2017-08-05T05:20:43.890Z,1003.77
2017-08-05T05:21:24.394Z,1003.77
2017-08-05T05:22:04.789Z,1003.74
2017-08-05T05:22:45.242Z,1003.77
2017-08-05T05:23:25.652Z,1003.75
2017-08-05T05:24:06.001Z,1003.76
2017-08-05T05:24:46.444Z,1003.77
2017-08-05T05:25:26.865Z,1003.8
2017-08-05T05:26:07.361Z,1003.79
2017-08-05T05:26:47.795Z,1003.82
2017-08-05T05:27:28.213Z,1003.86
2017-08-05T05:28:08.714Z,1003.83
2017-08-05T05:28:49.121Z,1003.82
2017-08-05T05:29:29.579Z,1003.85
2017-08-05T05:30:09.928Z,1003.84
2017-08-05T05:30:50.352Z,1003.85
2017-08-05T05:31:30.769Z,1003.85
2017-08-05T05:32:11.155Z,1003.87
2017-08-05T05:32:51.569Z,1003.88
2017-08-05T05:33:32.018Z,1003.85
2017-08-05T05:34:12.461Z,1003.91
2017-08-05T05:34:52.870Z,1003.88
2017-08-05T05:35:33.321Z,1003.9
2017-08-05T05:36:13.767Z,1003.98
2017-08-05T05:36:54.181Z,1004
2017-08-05T05:37:34.623Z,1003.97
2017-08-05T05:38:15.053Z,1004.01
2017-08-05T05:38:55.478Z,1003.99
2017-08-05T05:39:35.839Z,1003.98
2017-08-05T05:40:16.249Z,1003.97
2017-08-05T05:40:56.655Z,1003.98
2017-08-05T05:41:37.161Z,1003.97
2017-08-05T05:42:17.512Z,1003.98
2017-08-05T05:42:57.954Z,1004
2017-08-05T05:43:38.326Z,1004.02
2017-08-05T05:44:18.661Z,1004.01
2017-08-05T05:44:59.091Z,1003.99
2017-08-05T05:45:39.549Z,1003.95
2017-08-05T05:46:19.961Z,1003.97
2017-08-05T05:47:00.386Z,1003.96
2017-08-05T05:47:40.813Z,1004.01
2017-08-05T05:48:21.236Z,1003.95
2017-08-05T05:49:01.578Z,1003.99
2017-08-05T05:49:42.015Z,1003.96
2017-08-05T05:50:22.394Z,1004.01
2017-08-05T05:51:02.841Z,1004.01
2017-08-05T05:51:43.245Z,1003.99
2017-08-05T05:52:23.669Z,1003.94
2017-08-05T05:53:04.065Z,1003.98
2017-08-05T05:53:44.472Z,1004.01
2017-08-05T05:54:24.914Z,1004.02
2017-08-05T05:55:05.306Z,1004.01
2017-08-05T05:55:45.661Z,1004.01
2017-08-05T05:56:26.113Z,1004.02
2017-08-05T05:57:06.546Z,1003.99
2017-08-05T05:57:46.923Z,1003.94
2017-08-05T05:58:27.342Z,1003.88
2017-08-05T05:59:07.743Z,1003.85
2017-08-05T05:59:48.152Z,1003.83
2017-08-05T06:00:28.626Z,1003.84
2017-08-05T06:01:09.045Z,1003.88
2017-08-05T06:01:49.475Z,1003.87
2017-08-05T06:02:29.886Z,1003.88
2017-08-05T06:03:10.313Z,1003.91
2017-08-05T06:03:50.749Z,1003.94
2017-08-05T06:04:31.185Z,1003.88
2017-08-05T06:05:11.547Z,1003.87
2017-08-05T06:05:51.958Z,1003.9
2017-08-05T06:06:32.338Z,1003.88
2017-08-05T06:07:12.746Z,1003.89
2017-08-05T06:07:53.129Z,1003.91
2017-08-05T06:08:33.523Z,1003.94
2017-08-05T06:09:14.013Z,1003.95
2017-08-05T06:09:54.445Z,1003.95
2017-08-05T06:10:34.819Z,1003.94
2017-08-05T06:11:15.252Z,1003.94
2017-08-05T06:11:55.657Z,1003.91
2017-08-05T06:12:36.047Z,1003.91
2017-08-05T06:13:16.430Z,1003.94
2017-08-05T06:13:56.854Z,1003.88
2017-08-05T06:14:37.288Z,1003.86
2017-08-05T06:15:17.718Z,1003.87
2017-08-05T06:15:58.104Z,1003.85
2017-08-05T06:16:38.483Z,1003.82
2017-08-05T06:17:18.922Z,1003.78
2017-08-05T06:17:59.323Z,1003.77
2017-08-05T06:18:39.720Z,1003.77
2017-08-05T06:19:20.130Z,1003.71
2017-08-05T06:20:00.546Z,1003.67
2017-08-05T06:20:40.981Z,1003.67
2017-08-05T06:21:21.375Z,1003.59
2017-08-05T06:22:01.812Z,1003.55
2017-08-05T06:22:42.210Z,1003.51
2017-08-05T06:23:22.667Z,1003.47
2017-08-05T06:24:03.049Z,1003.44
2017-08-05T06:24:43.473Z,1003.44
2017-08-05T06:25:23.857Z,1003.45
2017-08-05T06:26:04.237Z,1003.44
2017-08-05T06:26:44.651Z,1003.46
2017-08-05T06:27:25.024Z,1003.47
2017-08-05T06:28:05.435Z,1003.48
2017-08-05T06:28:45.825Z,1003.45
2017-08-05T06:29:26.206Z,1003.47
2017-08-05T06:30:06.593Z,1003.46
2017-08-05T06:30:47.087Z,1003.48
2017-08-05T06:31:27.537Z,1003.57
2017-08-05T06:32:07.871Z,1003.54
2017-08-05T06:32:48.340Z,1003.56
2017-08-05T06:33:28.737Z,1003.59
2017-08-05T06:34:09.171Z,1003.59
2017-08-05T06:34:49.546Z,1003.62
2017-08-05T06:35:29.990Z,1003.68
2017-08-05T06:36:10.407Z,1003.72
2017-08-05T06:36:50.801Z,1003.72
2017-08-05T06:37:31.148Z,1003.71
2017-08-05T06:38:11.608Z,1003.74
2017-08-05T06:38:52.045Z,1003.67
2017-08-05T06:39:32.438Z,1003.67
2017-08-05T06:40:12.854Z,1003.65
2017-08-05T06:40:53.269Z,1003.62
2017-08-05T06:41:33.661Z,1003.61
2017-08-05T06:42:14.080Z,1003.67
2017-08-05T06:42:54.479Z,1003.65
2017-08-05T06:43:34.942Z,1003.7
2017-08-05T06:44:15.350Z,1003.7
2017-08-05T06:44:55.713Z,1003.67
2017-08-05T06:45:36.108Z,1003.68
2017-08-05T06:46:16.504Z,1003.74
2017-08-05T06:46:56.993Z,1003.75
2017-08-05T06:47:37.369Z,1003.79
2017-08-05T06:48:17.871Z,1003.79
2017-08-05T06:48:58.295Z,1003.78
2017-08-05T06:52:16.797Z,1003.76
2017-08-05T06:52:56.744Z,1003.77
2017-08-05T06:53:37.095Z,1003.77
2017-08-05T06:54:17.563Z,1003.82
2017-08-05T06:54:57.920Z,1003.81
2017-08-05T06:55:38.342Z,1003.83
2017-08-05T06:56:18.726Z,1003.81
2017-08-05T06:56:59.072Z,1003.82
2017-08-05T06:57:39.536Z,1003.87
2017-08-05T06:58:19.951Z,1003.86
2017-08-05T06:59:00.338Z,1003.89
2017-08-05T06:59:41.385Z,1003.86
2017-08-05T07:00:21.289Z,1003.82
2017-08-05T07:01:01.729Z,1003.85
2017-08-05T07:01:42.110Z,1003.87
2017-08-05T07:02:22.493Z,1003.84
2017-08-05T07:03:02.855Z,1003.91
2017-08-05T07:03:43.273Z,1003.9
2017-08-05T07:04:23.721Z,1003.88
2017-08-05T07:05:04.065Z,1003.9
2017-08-05T07:05:44.485Z,1003.9
2017-08-05T07:06:24.855Z,1003.95
2017-08-05T07:07:05.280Z,1003.91
2017-08-05T07:07:45.693Z,1003.92
2017-08-05T07:08:26.183Z,1003.92
2017-08-05T07:09:06.500Z,1003.95
2017-08-05T07:09:46.886Z,1003.94
2017-08-05T07:10:27.281Z,1003.98
2017-08-05T07:11:07.751Z,1003.95
2017-08-05T07:11:48.117Z,1003.95
2017-08-05T07:12:28.484Z,1003.96
2017-08-05T07:13:08.909Z,1003.99
2017-08-05T07:13:49.276Z,1003.93
2017-08-05T07:14:29.685Z,1004.02
2017-08-05T07:15:10.093Z,1004.06
2017-08-05T07:15:50.511Z,1004.08
2017-08-05T07:16:30.897Z,1004.06
2017-08-05T07:17:11.281Z,1004.05
2017-08-05T07:17:51.730Z,1004.02
2017-08-05T07:18:32.090Z,1004.03
2017-08-05T07:19:12.507Z,1004.02
2017-08-05T07:19:52.923Z,1004.03
2017-08-05T07:20:33.342Z,1004.03
2017-08-05T07:21:13.701Z,1004.05
2017-08-05T07:21:54.093Z,1004.03
2017-08-05T07:22:34.553Z,1004.09
2017-08-05T07:23:14.902Z,1004.08
2017-08-05T07:23:55.308Z,1004.14
2017-08-05T07:24:35.764Z,1004.13
2017-08-05T07:25:16.166Z,1004.14
2017-08-05T07:25:56.572Z,1004.18
2017-08-05T07:26:36.964Z,1004.19
2017-08-05T07:27:17.347Z,1004.17
2017-08-05T07:27:57.749Z,1004.21
2017-08-05T07:28:38.158Z,1004.18
2017-08-05T07:29:18.594Z,1004.13
2017-08-05T07:29:58.950Z,1004.1
2017-08-05T07:30:39.339Z,1004.1
2017-08-05T07:31:19.751Z,1004.06
2017-08-05T07:32:00.157Z,1004.03
2017-08-05T07:32:40.546Z,1004.02
2017-08-05T07:33:20.947Z,1004.05
2017-08-05T07:34:01.367Z,1004.03
2017-08-05T07:34:41.759Z,1004.02
2017-08-05T07:35:22.166Z,1004.03
2017-08-05T07:36:02.601Z,1004.08
2017-08-05T07:36:43.003Z,1004.05
2017-08-05T07:37:23.372Z,1004.01
2017-08-05T07:38:03.805Z,1004.07
2017-08-05T07:40:32.355Z,1004.06
2017-08-05T07:41:12.594Z,1004.04
2017-08-05T07:41:52.982Z,1004.13
2017-08-05T07:44:06.176Z,1004.12
2017-08-05T07:44:46.553Z,1004.1
2017-08-05T07:45:27.001Z,1004.12
2017-08-05T07:46:07.409Z,1004.13
2017-08-05T07:46:47.803Z,1004.15
2017-08-05T07:47:28.197Z,1004.17
2017-08-05T07:48:08.630Z,1004.15
2017-08-05T07:48:49.055Z,1004.16
2017-08-05T07:49:29.453Z,1004.16
2017-08-05T07:50:09.891Z,1004.13
2017-08-05T07:50:50.293Z,1004.16
2017-08-05T07:51:30.665Z,1004.15
2017-08-05T07:52:11.136Z,1004.18
2017-08-05T07:54:40.606Z,1004.24
2017-08-05T07:55:20.986Z,1004.24
2017-08-05T07:56:01.376Z,1004.28
2017-08-05T07:56:41.761Z,1004.27
2017-08-05T07:57:22.202Z,1004.25
2017-08-05T07:58:02.608Z,1004.25
2017-08-05T07:58:42.999Z,1004.21
2017-08-05T07:59:23.358Z,1004.13
2017-08-05T08:00:03.752Z,1004.17
2017-08-05T08:00:44.218Z,1004.17
2017-08-05T08:01:24.587Z,1004.16
2017-08-05T08:02:04.999Z,1004.14
2017-08-05T08:02:45.382Z,1004.16
2017-08-05T08:03:25.807Z,1004.18
2017-08-05T08:04:06.212Z,1004.18
2017-08-05T08:04:46.594Z,1004.18
2017-08-05T08:05:27.007Z,1004.17
2017-08-05T08:06:07.666Z,1004.21
2017-08-05T08:06:48.064Z,1004.25
2017-08-05T08:07:28.476Z,1004.23
2017-08-05T08:08:08.874Z,1004.22
2017-08-05T08:08:49.304Z,1004.24
2017-08-05T08:09:29.714Z,1004.25
2017-08-05T08:10:10.050Z,1004.22
2017-08-05T08:10:50.489Z,1004.22
2017-08-05T08:11:30.917Z,1004.16
2017-08-05T08:12:11.280Z,1004.22
2017-08-05T08:12:51.721Z,1004.21
2017-08-05T08:13:32.105Z,1004.2
2017-08-05T08:14:12.601Z,1004.14
2017-08-05T08:14:53.092Z,1004.1
2017-08-05T08:15:33.520Z,1004.06
2017-08-05T08:16:13.919Z,1004.11
2017-08-05T08:16:54.346Z,1004.1
2017-08-05T08:17:34.806Z,1004.1
2017-08-05T08:18:15.172Z,1004.09
2017-08-05T08:18:55.626Z,1004.09
2017-08-05T08:19:35.996Z,1004.12
2017-08-05T08:20:16.423Z,1004.11
2017-08-05T08:20:56.888Z,1004.14